Time;durP1;ratioP1;P1;durP2;ratioP2;P2;SDS_P1;SDS_P2;PMS_P1;PMS_P2;Temp;Humidity;BMP_temperature;BMP_pressure;BME280_temperature;BME280_humidity;BME280_pressure;Samples;Min_cycle;Max_cycle;Signal;HPM_P1;HPM_P2
2022/04/17 00:00:32;;;;;;;0.10;0.10;;;24.90;37.40;;;;;;5065325;28;20536;-52
2022/04/17 00:02:59;;;;;;;0.10;0.10;;;24.90;37.40;;;;;;5065879;28;20186;-51
2022/04/17 00:05:26;;;;;;;0.10;0.10;;;24.90;37.40;;;;;;5067552;28;20046;-49
2022/04/17 00:07:53;;;;;;;0.20;0.20;;;24.90;37.40;;;;;;5068988;28;20152;-54
2022/04/17 00:10:20;;;;;;;0.10;0.10;;;24.90;37.40;;;;;;5069287;28;20047;-53
2022/04/17 00:12:48;;;;;;;0.10;0.10;;;24.90;37.50;;;;;;5069284;28;20507;-53
2022/04/17 00:15:15;;;;;;;0.10;0.10;;;24.80;37.40;;;;;;5068766;28;20045;-54
2022/04/17 00:17:44;;;;;;;0.10;0.10;;;24.80;37.50;;;;;;5052013;28;20131;-52
2022/04/17 00:20:12;;;;;;;0.35;0.10;;;24.80;37.50;;;;;;5070653;28;20051;-48
2022/04/17 00:22:39;;;;;;;0.10;0.10;;;24.80;37.40;;;;;;5068679;28;20037;-53
2022/04/17 00:25:08;;;;;;;0.20;0.00;;;24.80;37.40;;;;;;5068910;28;20094;-51
2022/04/17 00:27:35;;;;;;;0.10;0.10;;;24.80;37.50;;;;;;5068892;28;20040;-51
2022/04/17 00:30:03;;;;;;;0.77;0.10;;;24.80;37.50;;;;;;5068174;28;20048;-49
2022/04/17 00:32:31;;;;;;;0.10;0.10;;;24.80;37.50;;;;;;5070617;28;20435;-48
2022/04/17 00:35:00;;;;;;;0.10;0.10;;;24.70;37.40;;;;;;5068822;28;20040;-52
2022/04/17 00:37:27;;;;;;;0.10;0.10;;;24.70;38.00;;;;;;5068531;28;20048;-48
2022/04/17 00:39:54;;;;;;;0.10;0.10;;;24.70;37.40;;;;;;5050328;28;20421;-53
2022/04/17 00:42:21;;;;;;;0.10;0.10;;;24.70;37.40;;;;;;5069012;28;20079;-52
2022/04/17 00:44:48;;;;;;;0.10;0.10;;;24.70;37.40;;;;;;5068793;28;20045;-50
2022/04/17 00:47:16;;;;;;;0.10;0.08;;;24.70;37.50;;;;;;5070324;28;20530;-51
2022/04/17 00:49:44;;;;;;;0.10;0.08;;;24.70;37.50;;;;;;5068505;28;20059;-51
2022/04/17 00:52:13;;;;;;;0.10;0.10;;;24.70;37.50;;;;;;5068466;28;20064;-51
2022/04/17 00:54:44;;;;;;;0.10;0.10;;;24.60;37.40;;;;;;5068253;28;20048;-51
2022/04/17 00:57:12;;;;;;;0.40;0.10;;;24.60;37.40;;;;;;5053564;28;20045;-52
2022/04/17 00:59:41;;;;;;;0.10;0.10;;;24.60;37.40;;;;;;5068955;28;20048;-48
2022/04/17 01:02:08;;;;;;;0.10;0.10;;;24.60;37.40;;;;;;5068960;28;20048;-51
2022/04/17 01:04:36;;;;;;;0.10;0.10;;;24.60;37.40;;;;;;5068186;28;20037;-50
2022/04/17 01:07:03;;;;;;;0.10;0.10;;;24.60;37.40;;;;;;5068337;28;20047;-50
2022/04/17 01:09:32;;;;;;;0.35;0.10;;;24.60;37.40;;;;;;5068488;28;20048;-51
2022/04/17 01:12:00;;;;;;;0.10;0.10;;;24.60;37.40;;;;;;5068386;28;20135;-51
2022/04/17 01:14:27;;;;;;;0.10;0.10;;;24.60;37.40;;;;;;5069593;28;20080;-52
2022/04/17 01:16:55;;;;;;;0.20;0.10;;;24.60;37.40;;;;;;5067820;28;20156;-52
2022/04/17 01:19:23;;;;;;;0.03;0.00;;;24.50;37.40;;;;;;5068083;28;20123;-50
2022/04/17 01:21:53;;;;;;;0.10;0.10;;;24.50;37.40;;;;;;5067861;28;20055;-49
2022/04/17 01:27:05;;;;;;;0.15;0.10;;;24.50;37.40;;;;;;5052008;28;20182;-48
2022/04/17 01:29:34;;;;;;;0.08;0.08;;;24.50;37.40;;;;;;5069539;28;20512;-50
2022/04/17 01:32:03;;;;;;;0.05;0.05;;;24.40;37.30;;;;;;5068267;28;20044;-47
2022/04/17 01:34:30;;;;;;;0.22;0.10;;;24.40;37.30;;;;;;5067957;28;20041;-50
2022/04/17 01:36:59;;;;;;;0.10;0.10;;;24.40;37.30;;;;;;5067772;28;20119;-51
2022/04/17 01:39:26;;;;;;;0.10;0.10;;;24.50;37.40;;;;;;5067957;28;20043;-48
2022/04/17 01:41:54;;;;;;;3.85;0.10;;;24.40;37.30;;;;;;5067451;28;20072;-53
2022/04/17 01:44:22;;;;;;;0.10;0.10;;;24.40;37.40;;;;;;5070873;28;20040;-50
2022/04/17 01:46:49;;;;;;;0.10;0.00;;;24.40;37.30;;;;;;5067342;28;20079;-54
2022/04/17 01:49:17;;;;;;;0.10;0.10;;;24.40;37.90;;;;;;5067312;28;20041;-51
2022/04/17 01:51:45;;;;;;;0.10;0.10;;;24.40;37.30;;;;;;5067199;28;20055;-50
2022/04/17 01:54:15;;;;;;;0.10;0.10;;;24.40;37.40;;;;;;5049483;28;20041;-48
2022/04/17 01:56:43;;;;;;;0.10;0.10;;;24.40;37.40;;;;;;5051540;28;20124;-53
2022/04/17 01:59:11;;;;;;;0.00;0.00;;;24.40;37.40;;;;;;5067972;28;20052;-51
2022/04/17 02:01:39;;;;;;;0.00;0.00;;;24.30;37.30;;;;;;5067729;28;20414;-51
2022/04/17 02:04:08;;;;;;;0.10;0.10;;;24.30;37.30;;;;;;5067257;28;20037;-47
2022/04/17 02:06:36;;;;;;;0.10;0.10;;;24.30;37.30;;;;;;5066927;28;20123;-48
2022/04/17 02:09:04;;;;;;;0.17;0.10;;;24.30;37.30;;;;;;5067340;28;20033;-50
2022/04/17 02:11:32;;;;;;;0.10;0.00;;;24.30;37.30;;;;;;5068453;28;20138;-52
2022/04/17 02:14:00;;;;;;;0.10;0.10;;;24.30;37.30;;;;;;5066750;28;20044;-50
2022/04/17 02:16:28;;;;;;;0.00;0.00;;;24.30;37.30;;;;;;5066897;28;20071;-49
2022/04/17 02:18:55;;;;;;;0.00;0.00;;;24.30;37.30;;;;;;5048595;28;20040;-54
2022/04/17 02:21:22;;;;;;;0.10;0.10;;;24.30;37.30;;;;;;5066278;28;20072;-52
2022/04/17 02:23:49;;;;;;;0.00;0.00;;;24.30;37.30;;;;;;5067208;28;20040;-52
2022/04/17 02:26:17;;;;;;;0.00;0.00;;;24.30;37.30;;;;;;5068203;28;20063;-53
2022/04/17 02:28:46;;;;;;;0.08;0.00;;;24.20;37.30;;;;;;5065785;28;20056;-53
2022/04/17 02:31:14;;;;;;;0.10;0.10;;;24.20;37.20;;;;;;5066757;28;20058;-52
2022/04/17 02:33:41;;;;;;;0.00;0.00;;;24.20;37.30;;;;;;5066559;28;20047;-51
2022/04/17 02:36:08;;;;;;;2.15;0.03;;;24.20;37.30;;;;;;5066342;28;20058;-51
2022/04/17 02:38:35;;;;;;;0.10;0.10;;;24.20;37.30;;;;;;5068262;28;20055;-49
2022/04/17 02:41:02;;;;;;;0.10;0.10;;;24.20;37.30;;;;;;5067028;28;20083;-50
2022/04/17 02:43:29;;;;;;;0.10;0.10;;;24.20;37.30;;;;;;5066590;28;20123;-53
2022/04/17 02:45:57;;;;;;;0.32;0.32;;;24.10;37.20;;;;;;5066441;28;20535;-53
2022/04/17 02:48:23;;;;;;;0.03;0.03;;;24.10;37.20;;;;;;5066543;28;20051;-51
2022/04/17 02:50:50;;;;;;;0.20;0.03;;;24.10;37.80;;;;;;5066586;28;20044;-52
2022/04/17 02:53:18;;;;;;;1.23;0.10;;;24.10;37.20;;;;;;5065811;28;20060;-49
2022/04/17 02:55:45;;;;;;;0.28;0.00;;;24.10;37.30;;;;;;5056776;28;20128;-49
2022/04/17 02:58:12;;;;;;;0.10;0.00;;;24.10;37.30;;;;;;5059411;28;20040;-52
2022/04/17 03:05:36;;;;;;;0.52;0.10;;;24.10;37.20;;;;;;5066202;28;20044;-53
2022/04/17 03:06:14;;;;;;;0.10;0.00;;;24.10;37.30;;;;;;5051485;28;20663;-50
2022/04/17 03:08:43;;;;;;;0.47;0.00;;;24.00;37.30;;;;;;5066675;28;20044;-53
2022/04/17 03:11:11;;;;;;;0.10;0.10;;;24.10;37.30;;;;;;5066847;28;20451;-50
2022/04/17 03:13:38;;;;;;;0.10;0.10;;;24.00;37.30;;;;;;5066245;28;20044;-48
2022/04/17 03:16:08;;;;;;;0.10;0.10;;;24.00;37.30;;;;;;5065597;28;20131;-52
2022/04/17 03:18:36;;;;;;;0.00;0.00;;;24.10;37.30;;;;;;5066394;28;20086;-51
2022/04/17 03:21:03;;;;;;;0.10;0.00;;;24.00;37.30;;;;;;5066217;28;20040;-50
2022/04/17 03:23:30;;;;;;;0.00;0.00;;;24.00;37.30;;;;;;5067604;28;20568;-50
2022/04/17 03:25:57;;;;;;;0.10;0.10;;;24.00;37.30;;;;;;5066045;28;20048;-48
2022/04/17 03:28:24;;;;;;;0.00;0.00;;;23.90;37.20;;;;;;5066335;28;20421;-50
2022/04/17 03:30:51;;;;;;;0.00;0.00;;;24.00;37.30;;;;;;5048424;28;20044;-48
2022/04/17 03:33:18;;;;;;;0.08;0.08;;;23.90;37.20;;;;;;5066245;28;20055;-51
2022/04/17 03:35:47;;;;;;;0.10;0.10;;;23.90;37.20;;;;;;5065729;28;20051;-49
2022/04/17 03:38:14;;;;;;;0.10;0.10;;;24.00;37.30;;;;;;5066547;28;20047;-49
2022/04/17 03:40:41;;;;;;;0.35;0.10;;;24.00;37.30;;;;;;5066300;28;20052;-53
2022/04/17 03:43:08;;;;;;;0.00;0.00;;;23.90;37.20;;;;;;5070183;28;20036;-48
2022/04/17 03:45:35;;;;;;;0.10;0.10;;;23.90;37.20;;;;;;5069924;28;20033;-52
2022/04/17 03:48:02;;;;;;;0.10;0.10;;;23.90;37.30;;;;;;5070017;28;20044;-51
2022/04/17 03:50:29;;;;;;;0.00;0.00;;;23.90;37.20;;;;;;5071510;28;20040;-46
2022/04/17 03:52:58;;;;;;;0.03;0.03;;;23.90;37.20;;;;;;5068958;28;20431;-54
2022/04/17 03:55:25;;;;;;;0.10;0.00;;;23.90;37.20;;;;;;5063472;28;20562;-49
2022/04/17 03:57:52;;;;;;;0.25;0.25;;;23.90;37.30;;;;;;5060126;28;20047;-52
2022/04/17 04:00:19;;;;;;;0.10;0.10;;;23.90;37.30;;;;;;5069515;28;20036;-52
2022/04/17 04:02:51;;;;;;;0.00;0.00;;;23.90;37.30;;;;;;5070045;28;20036;-52
2022/04/17 04:05:19;;;;;;;0.00;0.00;;;23.90;37.30;;;;;;5051311;28;20120;-50
2022/04/17 04:07:47;;;;;;;0.03;0.00;;;23.80;37.20;;;;;;5069218;28;20098;-52
2022/04/17 04:10:16;;;;;;;0.28;0.00;;;23.90;37.30;;;;;;5069361;28;20042;-50
2022/04/17 04:12:44;;;;;;;0.10;0.00;;;23.80;37.20;;;;;;5069206;28;20115;-48
2022/04/17 04:15:11;;;;;;;0.10;0.10;;;23.80;37.20;;;;;;5069541;28;20050;-53
2022/04/17 04:17:38;;;;;;;0.10;0.00;;;23.80;37.20;;;;;;5070203;28;20064;-52
2022/04/17 04:20:07;;;;;;;0.10;0.10;;;23.80;37.20;;;;;;5070189;28;20044;-52
2022/04/17 04:22:34;;;;;;;0.00;0.00;;;23.80;37.20;;;;;;5068682;28;20040;-52
2022/04/17 04:25:01;;;;;;;0.50;0.10;;;23.70;37.10;;;;;;5068957;28;20036;-52
2022/04/17 04:30:14;;;;;;;0.10;0.10;;;23.70;37.10;;;;;;5063973;28;20201;-51
2022/04/17 04:32:53;;;;;;;0.10;0.10;;;23.70;37.20;;;;;;5069641;28;20072;-54
2022/04/17 04:35:21;;;;;;;0.10;0.00;;;23.70;37.20;;;;;;5070445;28;20045;-48
2022/04/17 04:37:48;;;;;;;0.10;0.10;;;23.70;37.20;;;;;;5068589;28;20115;-54
2022/04/17 04:40:15;;;;;;;0.28;0.28;;;23.70;37.20;;;;;;5068792;28;20114;-52
2022/04/17 04:42:44;;;;;;;0.10;0.10;;;23.70;37.20;;;;;;5068730;28;20078;-48
2022/04/17 04:47:56;;;;;;;0.00;0.00;;;23.70;37.80;;;;;;5069061;28;20052;-53
2022/04/17 04:50:23;;;;;;;0.00;0.00;;;23.70;37.20;;;;;;5070250;28;20040;-51
2022/04/17 04:52:50;;;;;;;0.10;0.05;;;23.70;37.20;;;;;;5067900;28;20048;-52
2022/04/17 04:55:17;;;;;;;0.85;0.55;;;23.70;37.20;;;;;;5050355;28;20037;-54
2022/04/17 04:57:45;;;;;;;0.30;0.30;;;23.70;37.20;;;;;;5068492;28;20173;-52
2022/04/17 05:00:13;;;;;;;0.00;0.00;;;23.70;37.20;;;;;;5068740;28;20037;-53
2022/04/17 05:02:41;;;;;;;0.30;0.10;;;23.70;37.80;;;;;;5069338;28;20044;-51
2022/04/17 05:05:09;;;;;;;0.10;0.10;;;23.70;37.20;;;;;;5069855;28;20578;-52
2022/04/17 05:07:37;;;;;;;0.00;0.00;;;23.60;37.10;;;;;;5068298;28;20051;-52
2022/04/17 05:10:04;;;;;;;0.90;0.10;;;23.60;37.10;;;;;;5068387;28;20040;-52
2022/04/17 05:12:31;;;;;;;0.00;0.00;;;23.60;37.10;;;;;;5068130;28;20041;-54
2022/04/17 05:15:00;;;;;;;0.00;0.00;;;23.60;37.10;;;;;;5068453;28;20048;-53
2022/04/17 05:17:27;;;;;;;0.00;0.00;;;23.60;37.10;;;;;;5070080;28;20555;-53
2022/04/17 05:19:54;;;;;;;0.10;0.10;;;23.60;37.10;;;;;;5067843;28;20051;-54
2022/04/17 05:22:30;;;;;;;0.00;0.00;;;23.60;37.10;;;;;;5068058;28;20048;-52
2022/04/17 05:24:57;;;;;;;0.08;0.08;;;23.60;37.00;;;;;;5049582;28;20810;-54
2022/04/17 05:27:24;;;;;;;0.20;0.20;;;23.60;37.10;;;;;;5068048;28;20044;-54
2022/04/17 05:29:51;;;;;;;0.10;0.03;;;23.60;37.10;;;;;;5077859;28;20520;-54
2022/04/17 05:32:19;;;;;;;0.75;0.08;;;23.60;37.00;;;;;;5067926;28;20045;-54
2022/04/17 05:34:46;;;;;;;0.20;0.10;;;23.60;37.00;;;;;;5067669;28;20105;-53
2022/04/17 05:37:13;;;;;;;0.10;0.10;;;23.60;37.00;;;;;;5067644;28;20044;-54
2022/04/17 05:39:41;;;;;;;0.10;0.10;;;23.60;37.00;;;;;;5067609;28;20048;-54
2022/04/17 05:42:08;;;;;;;0.08;0.00;;;23.60;37.00;;;;;;5067735;28;20040;-51
2022/04/17 05:44:37;;;;;;;0.17;0.10;;;23.60;37.00;;;;;;5069672;28;20048;-53
2022/04/17 05:47:04;;;;;;;1.15;0.50;;;23.60;37.00;;;;;;5068825;28;20394;-52
2022/04/17 05:49:33;;;;;;;0.20;0.10;;;23.60;37.00;;;;;;5049212;28;20059;-52
2022/04/17 05:52:00;;;;;;;0.50;0.10;;;23.60;37.00;;;;;;5067353;28;20048;-51
2022/04/17 05:54:27;;;;;;;0.20;0.00;;;23.60;36.90;;;;;;5065680;28;20037;-49
2022/04/17 05:56:54;;;;;;;0.08;0.05;;;23.60;36.90;;;;;;5051492;28;20123;-51
2022/04/17 05:59:22;;;;;;;0.40;0.10;;;23.60;36.90;;;;;;5069133;28;20040;-51
2022/04/17 06:01:49;;;;;;;0.20;0.20;;;23.50;36.80;;;;;;5067300;28;20406;-51
2022/04/17 06:04:16;;;;;;;0.30;0.30;;;23.60;36.90;;;;;;5066349;28;20032;-53
2022/04/17 06:06:44;;;;;;;0.40;0.10;;;23.60;36.90;;;;;;5066883;28;20041;-50
2022/04/17 06:09:11;;;;;;;0.80;0.00;;;23.60;36.90;;;;;;5067056;28;20115;-52
2022/04/17 06:11:38;;;;;;;0.20;0.03;;;23.60;36.80;;;;;;5068331;28;20041;-51
2022/04/17 06:14:05;;;;;;;0.10;0.10;;;23.60;36.80;;;;;;5068275;28;20853;-52
2022/04/17 06:16:33;;;;;;;0.45;0.05;;;23.60;36.80;;;;;;5067129;28;20378;-54
2022/04/17 06:19:00;;;;;;;0.10;0.10;;;23.60;36.80;;;;;;5066894;28;20535;-51
2022/04/17 06:21:28;;;;;;;0.20;0.20;;;23.60;36.70;;;;;;5067140;28;20037;-54
2022/04/17 06:23:56;;;;;;;1.00;0.10;;;23.60;36.70;;;;;;5066296;28;20140;-51
2022/04/17 06:26:23;;;;;;;0.10;0.10;;;23.60;36.70;;;;;;5067544;28;20180;-54
2022/04/17 06:28:51;;;;;;;0.10;0.10;;;23.60;36.70;;;;;;5066528;28;20053;-53
2022/04/17 06:31:18;;;;;;;0.10;0.10;;;23.60;36.60;;;;;;5066323;28;20036;-50
2022/04/17 06:33:45;;;;;;;0.15;0.03;;;23.60;36.60;;;;;;5066851;28;20453;-53
2022/04/17 06:36:12;;;;;;;0.10;0.10;;;23.70;36.60;;;;;;5066838;28;20051;-52
2022/04/17 06:38:39;;;;;;;0.10;0.10;;;23.70;36.50;;;;;;5067099;28;20045;-52
2022/04/17 06:41:08;;;;;;;0.10;0.10;;;23.70;36.50;;;;;;5068173;28;20052;-52
2022/04/17 06:43:36;;;;;;;1.42;0.10;;;23.70;36.40;;;;;;5066862;28;20039;-51
2022/04/17 06:46:03;;;;;;;0.98;0.03;;;23.70;36.40;;;;;;5066204;28;20659;-53
2022/04/17 06:48:30;;;;;;;0.13;0.10;;;23.70;36.30;;;;;;5066444;28;20071;-55
2022/04/17 06:50:57;;;;;;;0.47;0.10;;;23.80;36.30;;;;;;5048283;28;20044;-49
2022/04/17 06:53:24;;;;;;;1.75;0.10;;;23.80;36.20;;;;;;5035417;28;20056;-54
2022/04/17 06:55:52;;;;;;;0.63;0.20;;;23.80;36.70;;;;;;5054763;28;20048;-51
2022/04/17 06:58:21;;;;;;;0.77;0.20;;;23.90;36.10;;;;;;5060669;28;20428;-51
2022/04/17 07:00:49;;;;;;;0.50;0.10;;;23.90;36.10;;;;;;5065832;28;20436;-50
2022/04/17 07:03:16;;;;;;;0.60;0.10;;;23.90;36.00;;;;;;5048668;28;20059;-53
2022/04/17 07:05:44;;;;;;;0.10;0.10;;;23.90;35.90;;;;;;5066841;28;20071;-50
2022/04/17 07:08:12;;;;;;;0.45;0.45;;;24.00;35.90;;;;;;5066757;28;20527;-51
2022/04/17 07:10:40;;;;;;;0.25;0.10;;;24.00;36.40;;;;;;5066049;28;20568;-53
2022/04/17 07:13:08;;;;;;;0.40;0.32;;;24.00;35.80;;;;;;5065977;28;20045;-52
2022/04/17 07:15:36;;;;;;;0.55;0.20;;;24.10;35.70;;;;;;5065659;28;20036;-54
2022/04/17 07:18:03;;;;;;;0.30;0.30;;;24.10;35.60;;;;;;5065962;28;20041;-53
2022/04/17 07:20:31;;;;;;;0.77;0.52;;;24.10;35.60;;;;;;5067854;28;20609;-53
2022/04/17 07:23:00;;;;;;;1.00;0.40;;;24.20;35.50;;;;;;5065936;28;20505;-51
2022/04/17 07:25:27;;;;;;;1.27;0.52;;;24.20;35.40;;;;;;5069853;28;20404;-52
2022/04/17 07:27:55;;;;;;;0.40;0.20;;;24.20;35.40;;;;;;5065524;28;20487;-49
2022/04/17 07:30:24;;;;;;;0.68;0.68;;;24.20;35.40;;;;;;5047064;28;20094;-53
2022/04/17 07:32:54;;;;;;;0.90;0.30;;;24.30;35.30;;;;;;5066354;28;20235;-52
2022/04/17 07:35:22;;;;;;;0.65;0.47;;;24.30;35.20;;;;;;5047957;28;20497;-51
2022/04/17 07:37:49;;;;;;;0.90;0.45;;;24.30;35.20;;;;;;5064923;28;20048;-54
2022/04/17 07:40:19;;;;;;;0.88;0.50;;;24.40;35.20;;;;;;5065319;28;20047;-50
2022/04/17 07:42:46;;;;;;;0.40;0.40;;;24.40;35.10;;;;;;5065425;28;20098;-50
2022/04/17 07:45:15;;;;;;;0.40;0.38;;;24.40;35.10;;;;;;5064838;28;20056;-51
2022/04/17 07:47:43;;;;;;;1.02;0.47;;;24.40;35.00;;;;;;5066190;28;20063;-50
2022/04/17 07:50:13;;;;;;;0.90;0.35;;;24.40;35.00;;;;;;5066138;28;20056;-53
2022/04/17 07:52:41;;;;;;;1.77;0.77;;;24.40;34.90;;;;;;5038784;28;20053;-53
2022/04/17 07:55:10;;;;;;;1.38;0.43;;;24.40;34.80;;;;;;5051924;28;20099;-50
2022/04/17 07:57:56;;;;;;;1.15;0.75;;;24.40;34.80;;;;;;5053979;28;20036;-55
2022/04/17 08:00:24;;;;;;;0.77;0.65;;;24.50;34.80;;;;;;5061138;28;20049;-51
2022/04/17 08:02:55;;;;;;;2.35;0.35;;;24.40;34.70;;;;;;5065624;28;20049;-54
2022/04/17 08:05:24;;;;;;;1.15;0.47;;;24.50;34.70;;;;;;5065597;28;20068;-49
2022/04/17 08:07:52;;;;;;;2.50;0.70;;;24.50;34.70;;;;;;5064745;28;20052;-51
2022/04/17 08:10:19;;;;;;;1.65;0.45;;;24.50;34.60;;;;;;5065047;28;20125;-49
2022/04/17 08:12:47;;;;;;;0.98;0.50;;;24.50;34.60;;;;;;5064572;28;20049;-54
2022/04/17 08:15:14;;;;;;;2.15;0.57;;;24.50;34.50;;;;;;5047191;28;20051;-52
2022/04/17 08:17:41;;;;;;;0.82;0.70;;;24.50;34.50;;;;;;5048192;28;20048;-52
2022/04/17 08:20:09;;;;;;;0.60;0.25;;;24.50;34.50;;;;;;5066482;28;20123;-54
2022/04/17 08:22:38;;;;;;;1.58;1.05;;;24.50;34.40;;;;;;5065036;28;20048;-50
2022/04/17 08:25:06;;;;;;;1.33;1.08;;;24.60;34.50;;;;;;5065066;28;20493;-52
2022/04/17 08:27:33;;;;;;;0.98;0.43;;;24.60;34.50;;;;;;5067071;28;20037;-53
2022/04/17 08:30:01;;;;;;;1.83;0.98;;;24.60;34.40;;;;;;5069132;28;20180;-53
2022/04/17 08:32:28;;;;;;;1.02;0.60;;;24.60;34.40;;;;;;5070514;28;20119;-51
2022/04/17 08:34:55;;;;;;;0.90;0.85;;;24.60;34.40;;;;;;5068907;28;20049;-53
2022/04/17 08:37:22;;;;;;;1.75;1.08;;;24.60;34.30;;;;;;5068425;28;20037;-50
2022/04/17 08:39:51;;;;;;;5.30;1.00;;;24.60;34.40;;;;;;5068881;28;20100;-53
2022/04/17 08:42:20;;;;;;;2.47;1.67;;;24.60;34.30;;;;;;5068776;28;20037;-50
2022/04/17 08:44:47;;;;;;;3.30;1.30;;;24.60;34.30;;;;;;5069111;28;20357;-51
2022/04/17 08:47:14;;;;;;;1.33;0.80;;;24.60;34.20;;;;;;5070511;28;20044;-51
2022/04/17 08:49:43;;;;;;;1.77;0.57;;;24.60;34.20;;;;;;5068598;28;20048;-47
2022/04/17 08:52:15;;;;;;;1.77;1.10;;;24.70;34.30;;;;;;5068719;28;20037;-49
2022/04/17 08:54:43;;;;;;;1.80;1.00;;;24.70;34.80;;;;;;5067885;28;20057;-53
2022/04/17 08:57:12;;;;;;;3.50;1.42;;;24.60;34.20;;;;;;5053104;28;20115;-47
2022/04/17 08:59:39;;;;;;;2.45;1.58;;;24.70;34.20;;;;;;5069455;28;20040;-53
2022/04/17 09:02:08;;;;;;;2.83;1.85;;;24.70;34.20;;;;;;5069113;28;20051;-50
2022/04/17 09:04:35;;;;;;;3.30;1.60;;;24.70;34.20;;;;;;5067965;28;20048;-47
2022/04/17 09:07:02;;;;;;;2.33;1.42;;;24.70;34.10;;;;;;5069045;28;20138;-53
2022/04/17 09:09:29;;;;;;;2.13;1.10;;;24.70;34.20;;;;;;5068221;28;20413;-51
2022/04/17 09:11:56;;;;;;;3.53;1.77;;;24.70;34.10;;;;;;5067932;28;20497;-51
2022/04/17 09:14:25;;;;;;;1.63;1.45;;;24.70;34.10;;;;;;5070200;28;20049;-49
2022/04/17 09:16:52;;;;;;;4.88;1.75;;;24.70;34.10;;;;;;5068286;28;20049;-49
2022/04/17 09:19:20;;;;;;;1.58;1.15;;;24.70;34.10;;;;;;5068061;28;20036;-47
2022/04/17 09:21:54;;;;;;;2.33;1.05;;;24.70;34.10;;;;;;5067770;28;20526;-51
2022/04/17 09:24:24;;;;;;;5.07;2.60;;;24.80;34.10;;;;;;5068330;28;20080;-49
2022/04/17 09:26:56;;;;;;;2.10;1.20;;;24.80;34.10;;;;;;5070397;28;20131;-51
2022/04/17 09:29:25;;;;;;;3.03;2.13;;;24.80;34.10;;;;;;5069749;28;20486;-49
2022/04/17 09:32:00;;;;;;;3.38;1.50;;;24.80;34.00;;;;;;5068030;28;20051;-50
2022/04/17 09:34:28;;;;;;;4.40;2.00;;;24.80;34.00;;;;;;5067823;28;20051;-49
2022/04/17 09:36:57;;;;;;;1.15;0.93;;;24.90;34.10;;;;;;5067726;28;20040;-50
2022/04/17 09:39:30;;;;;;;4.15;1.27;;;24.90;34.00;;;;;;5067507;28;20045;-49
2022/04/17 09:41:59;;;;;;;3.42;1.33;;;24.90;34.00;;;;;;5067704;28;20084;-51
2022/04/17 09:44:47;;;;;;;2.17;1.35;;;24.90;34.00;;;;;;5069612;28;20128;-51
2022/04/17 09:47:17;;;;;;;3.05;0.93;;;24.90;33.90;;;;;;5069433;28;20637;-54
2022/04/17 09:49:51;;;;;;;2.70;1.58;;;24.90;33.90;;;;;;5067721;28;20051;-50
2022/04/17 09:52:20;;;;;;;1.67;1.02;;;24.90;33.80;;;;;;5067626;28;20043;-49
2022/04/17 09:54:48;;;;;;;1.90;1.00;;;24.90;33.80;;;;;;5067016;28;20040;-47
2022/04/17 09:57:19;;;;;;;1.70;0.77;;;24.90;33.80;;;;;;5068126;28;20037;-50
2022/04/17 09:59:48;;;;;;;1.80;1.02;;;24.90;34.30;;;;;;5067899;28;20154;-50
2022/04/17 10:02:16;;;;;;;1.98;1.35;;;24.90;33.70;;;;;;5068855;28;20048;-53
2022/04/17 10:04:45;;;;;;;2.55;0.90;;;24.90;33.70;;;;;;5067608;28;20120;-51
2022/04/17 10:07:14;;;;;;;1.05;0.82;;;25.00;33.70;;;;;;5067490;28;20044;-47
2022/04/17 10:09:42;;;;;;;2.65;1.05;;;25.00;33.60;;;;;;5066945;28;20044;-48
2022/04/17 10:12:14;;;;;;;1.10;0.77;;;25.00;33.60;;;;;;5067760;28;20032;-50
2022/04/17 10:14:41;;;;;;;1.48;0.63;;;25.00;33.50;;;;;;5067449;28;20059;-54
2022/04/17 10:17:10;;;;;;;1.17;0.75;;;25.00;33.50;;;;;;5068502;28;20142;-53
2022/04/17 10:19:40;;;;;;;1.75;0.82;;;25.00;33.50;;;;;;5066951;28;20127;-51
2022/04/17 10:22:09;;;;;;;2.92;0.82;;;25.00;33.50;;;;;;5067244;28;20064;-53
2022/04/17 10:24:37;;;;;;;1.50;1.00;;;25.00;33.40;;;;;;5066923;28;20127;-50
2022/04/17 10:27:08;;;;;;;1.90;1.02;;;25.10;33.40;;;;;;5067072;28;20044;-49
2022/04/17 10:29:41;;;;;;;2.05;1.27;;;25.10;33.90;;;;;;5064502;28;20063;-53
2022/04/17 10:32:36;;;;;;;0.77;0.47;;;25.10;33.30;;;;;;5068232;28;20041;-50
2022/04/17 10:35:32;;;;;;;1.48;1.27;;;25.10;33.20;;;;;;5060856;28;20645;-53
2022/04/17 10:38:23;;;;;;;0.80;0.57;;;25.20;33.20;;;;;;5063899;28;20216;-51
2022/04/17 10:40:54;;;;;;;0.88;0.50;;;25.20;33.10;;;;;;5066976;28;20218;-53
2022/04/17 10:43:22;;;;;;;0.75;0.75;;;25.20;33.10;;;;;;5066482;28;20047;-51
2022/04/17 10:46:08;;;;;;;0.85;0.63;;;25.20;33.00;;;;;;5060500;28;20418;-55
2022/04/17 10:48:47;;;;;;;1.50;0.40;;;25.30;32.90;;;;;;5066544;28;20051;-53
2022/04/17 10:51:23;;;;;;;2.63;0.47;;;25.30;32.90;;;;;;5051419;28;20041;-52
2022/04/17 10:54:00;;;;;;;0.52;0.45;;;25.30;32.80;;;;;;5066298;28;20048;-50
2022/04/17 10:56:27;;;;;;;1.05;0.40;;;25.40;32.80;;;;;;5053568;28;20575;-51
2022/04/17 10:58:55;;;;;;;0.85;0.45;;;25.40;32.80;;;;;;5065383;28;20052;-49
2022/04/17 11:01:51;;;;;;;1.45;0.22;;;25.40;32.70;;;;;;5066659;28;20123;-52
2022/04/17 11:04:22;;;;;;;2.00;0.28;;;25.40;32.60;;;;;;5066401;28;20068;-53
2022/04/17 11:06:54;;;;;;;0.45;0.35;;;25.50;32.60;;;;;;5066400;28;20159;-48
2022/04/17 11:09:22;;;;;;;1.35;0.38;;;25.50;32.50;;;;;;5064370;28;20403;-47
2022/04/17 11:11:49;;;;;;;0.60;0.20;;;25.60;32.50;;;;;;5066868;28;20170;-49
2022/04/17 11:14:19;;;;;;;1.95;0.20;;;25.50;32.30;;;;;;5067788;28;20163;-53
2022/04/17 11:16:49;;;;;;;0.55;0.20;;;25.60;32.30;;;;;;5048341;28;20056;-49
2022/04/17 11:19:18;;;;;;;0.20;0.20;;;25.60;32.30;;;;;;5066225;28;20536;-50
2022/04/17 11:21:49;;;;;;;0.85;0.30;;;25.60;32.20;;;;;;5066027;28;20040;-51
2022/04/17 11:24:17;;;;;;;0.47;0.32;;;25.70;32.20;;;;;;5065762;28;20050;-50
2022/04/17 11:27:10;;;;;;;0.22;0.20;;;25.70;32.20;;;;;;5066941;28;20489;-48
2022/04/17 11:29:43;;;;;;;0.43;0.30;;;25.70;32.10;;;;;;5069638;28;20505;-51
2022/04/17 11:32:47;;;;;;;0.30;0.20;;;25.70;32.00;;;;;;5067448;28;20040;-51
2022/04/17 11:35:16;;;;;;;0.50;0.10;;;25.80;32.00;;;;;;5065394;28;20082;-50
2022/04/17 11:37:56;;;;;;;0.38;0.20;;;25.80;32.00;;;;;;5065633;28;20051;-51
2022/04/17 11:40:26;;;;;;;0.30;0.30;;;25.90;31.90;;;;;;5066056;28;20479;-48
2022/04/17 11:42:54;;;;;;;0.15;0.15;;;25.90;31.80;;;;;;5066093;28;20055;-52
2022/04/17 11:45:23;;;;;;;0.38;0.20;;;25.90;31.70;;;;;;5066077;28;20051;-52
2022/04/17 11:47:51;;;;;;;0.13;0.10;;;26.00;31.70;;;;;;5066563;28;20509;-50
2022/04/17 11:50:23;;;;;;;0.17;0.17;;;26.00;31.70;;;;;;5067326;28;20041;-51
2022/04/17 11:52:52;;;;;;;0.10;0.10;;;26.10;31.60;;;;;;5065714;28;20187;-51
2022/04/17 11:55:25;;;;;;;0.20;0.10;;;26.10;31.60;;;;;;5060287;28;20045;-50
2022/04/17 11:57:52;;;;;;;1.38;0.40;;;26.10;31.50;;;;;;5056264;28;20120;-53
2022/04/17 12:00:19;;;;;;;0.40;0.13;;;26.20;31.50;;;;;;5065916;28;20343;-50
2022/04/17 12:02:46;;;;;;;0.40;0.10;;;26.20;31.40;;;;;;5068521;28;20147;-52
2022/04/17 12:05:14;;;;;;;0.20;0.10;;;26.30;31.40;;;;;;5070742;28;20591;-49
2022/04/17 12:07:44;;;;;;;0.50;0.10;;;26.30;31.30;;;;;;5069820;28;20048;-47
2022/04/17 12:10:14;;;;;;;1.60;0.10;;;26.40;31.30;;;;;;5069388;28;20476;-50
2022/04/17 12:12:43;;;;;;;0.35;0.10;;;26.40;31.20;;;;;;5069543;28;20123;-50
2022/04/17 12:15:12;;;;;;;0.75;0.10;;;26.50;31.20;;;;;;5069838;28;20523;-47
2022/04/17 12:17:40;;;;;;;0.40;0.10;;;26.50;31.20;;;;;;5070667;28;20045;-52
2022/04/17 12:20:09;;;;;;;0.50;0.10;;;26.50;31.10;;;;;;5069951;28;20039;-51
2022/04/17 12:22:37;;;;;;;0.20;0.20;;;26.50;31.10;;;;;;5069832;28;20049;-50
2022/04/17 12:25:05;;;;;;;1.10;0.10;;;26.60;31.10;;;;;;5068931;28;20032;-53
2022/04/17 12:27:33;;;;;;;0.30;0.10;;;26.60;31.10;;;;;;5051531;28;20047;-50
2022/04/17 12:30:02;;;;;;;0.28;0.10;;;26.70;31.10;;;;;;5069097;28;20497;-48
2022/04/17 12:32:29;;;;;;;0.13;0.10;;;26.70;31.10;;;;;;5071024;28;20054;-48
2022/04/17 12:35:00;;;;;;;0.20;0.20;;;26.80;31.00;;;;;;5068825;28;20405;-53
2022/04/17 12:37:29;;;;;;;0.25;0.10;;;26.80;30.80;;;;;;5050593;28;20131;-53
2022/04/17 12:40:09;;;;;;;0.20;0.10;;;26.80;30.70;;;;;;5068472;28;20052;-49
2022/04/17 12:42:38;;;;;;;0.10;0.10;;;26.90;30.90;;;;;;5069314;28;20047;-52
2022/04/17 12:45:07;;;;;;;0.63;0.20;;;26.90;30.70;;;;;;5069002;28;20041;-52
2022/04/17 12:47:36;;;;;;;0.22;0.10;;;27.00;30.80;;;;;;5070663;28;20075;-50
2022/04/17 12:50:05;;;;;;;0.10;0.10;;;27.00;31.30;;;;;;5068634;28;20052;-52
2022/04/17 12:52:32;;;;;;;0.10;0.10;;;27.10;30.70;;;;;;5068935;28;20037;-50
2022/04/17 12:55:07;;;;;;;0.10;0.10;;;27.10;30.70;;;;;;5065873;28;20036;-53
2022/04/17 12:57:35;;;;;;;0.68;0.10;;;27.20;30.70;;;;;;5056855;28;20492;-50
2022/04/17 13:00:15;;;;;;;0.10;0.10;;;27.20;30.70;;;;;;5068955;28;20486;-51
2022/04/17 13:02:42;;;;;;;0.10;0.10;;;27.30;30.60;;;;;;5066030;28;20419;-48
2022/04/17 13:05:20;;;;;;;0.10;0.10;;;27.30;30.60;;;;;;5069915;28;20853;-53
2022/04/17 13:07:48;;;;;;;0.20;0.10;;;27.30;30.50;;;;;;5050994;28;20527;-52